Time;durP1;ratioP1;P1;durP2;ratioP2;P2;SDS_P1;SDS_P2;PMS_P1;PMS_P2;Temp;Humidity;BMP_temperature;BMP_pressure;BME280_temperature;BME280_humidity;BME280_pressure;Samples;Min_cycle;Max_cycle;Signal;HPM_P1;HPM_P2
2023/01/01 00:02:27;;;;;;;90.37;55.67;;;;;;;;;;5047532;28;20558;-85
2023/01/01 00:05:31;;;;;;;125.60;74.50;;;;;;;;;;5036320;28;20207;-86
2023/01/01 00:08:36;;;;;;;159.00;100.43;;;;;;;;;;5047093;28;20187;-85
2023/01/01 00:11:41;;;;;;;170.33;107.63;;;;;;;;;;5035926;28;20239;-86
2023/01/01 00:14:45;;;;;;;202.03;122.07;;;;;;;;;;5036612;28;20195;-86
2023/01/01 00:17:49;;;;;;;192.60;120.10;;;;;;;;;;5060198;28;20205;-86
2023/01/01 00:21:04;;;;;;;181.80;115.07;;;;;;;;;;5033494;28;20179;-85
2023/01/01 00:24:08;;;;;;;176.77;116.40;;;;;;;;;;5046718;28;20207;-85
2023/01/01 00:27:12;;;;;;;156.57;102.03;;;;;;;;;;5044945;28;20254;-85
2023/01/01 00:30:16;;;;;;;140.07;90.33;;;;;;;;;;5046193;28;20188;-85
2023/01/01 00:33:20;;;;;;;123.80;84.73;;;;;;;;;;5034033;28;20218;-85
2023/01/01 00:36:26;;;;;;;133.23;80.90;;;;;;;;;;5035702;28;20199;-85
2023/01/01 00:39:30;;;;;;;118.10;76.70;;;;;;;;;;5045042;28;20185;-85
2023/01/01 00:42:34;;;;;;;118.90;74.93;;;;;;;;;;5033974;28;20215;-86
2023/01/01 00:45:38;;;;;;;104.30;68.63;;;;;;;;;;5032254;28;20206;-86
2023/01/01 00:48:43;;;;;;;80.00;53.37;;;;;;;;;;5043555;28;20512;-84
2023/01/01 00:51:47;;;;;;;151.10;107.23;;;;;;;;;;5031813;28;20231;-83
2023/01/01 00:54:51;;;;;;;155.30;104.47;;;;;;;;;;5044026;28;20195;-84
2023/01/01 00:57:55;;;;;;;125.57;82.27;;;;;;;;;;5031810;28;20183;-85
2023/01/01 01:01:00;;;;;;;77.00;47.87;;;;;;;;;;5043503;28;20184;-85
2023/01/01 01:04:04;;;;;;;57.97;39.83;;;;;;;;;;5055630;28;20183;-83
2023/01/01 01:07:08;;;;;;;52.03;36.33;;;;;;;;;;5034399;28;20180;-84
2023/01/01 01:10:13;;;;;;;54.57;38.53;;;;;;;;;;5042812;28;20180;-86
2023/01/01 01:13:16;;;;;;;47.60;34.50;;;;;;;;;;5034539;28;20211;-84
2023/01/01 01:16:26;;;;;;;69.13;42.90;;;;;;;;;;5035112;28;20180;-84
2023/01/01 01:19:30;;;;;;;65.00;43.37;;;;;;;;;;5046001;28;20192;-84
2023/01/01 01:22:34;;;;;;;60.23;39.63;;;;;;;;;;5046340;28;20212;-84
2023/01/01 01:25:38;;;;;;;59.07;40.13;;;;;;;;;;5034319;28;20524;-84
2023/01/01 01:28:43;;;;;;;60.97;43.20;;;;;;;;;;5045918;28;20176;-84
2023/01/01 01:31:47;;;;;;;64.10;41.27;;;;;;;;;;5057278;28;20223;-84
2023/01/01 01:34:51;;;;;;;55.30;36.00;;;;;;;;;;5025232;28;20196;-84
2023/01/01 01:37:55;;;;;;;41.20;27.23;;;;;;;;;;5025949;28;20181;-84
2023/01/01 01:41:00;;;;;;;40.73;28.10;;;;;;;;;;5014366;28;20176;-84
2023/01/01 01:44:47;;;;;;;31.63;22.13;;;;;;;;;;5014777;28;20180;-84
2023/01/01 01:47:55;;;;;;;28.67;19.70;;;;;;;;;;5012694;28;20177;-85
2023/01/01 01:50:59;;;;;;;31.07;20.80;;;;;;;;;;5012668;28;20180;-85
2023/01/01 01:54:09;;;;;;;31.93;21.30;;;;;;;;;;5024867;28;20180;-84
2023/01/01 01:57:14;;;;;;;30.80;20.20;;;;;;;;;;5013656;28;20185;-84
2023/01/01 02:00:18;;;;;;;33.13;21.03;;;;;;;;;;5013232;28;20533;-84
2023/01/01 02:03:42;;;;;;;29.13;20.40;;;;;;;;;;5011750;28;20675;-84
2023/01/01 02:06:47;;;;;;;30.70;21.00;;;;;;;;;;5014537;28;20181;-84
2023/01/01 02:09:52;;;;;;;28.17;19.30;;;;;;;;;;5031469;28;20701;-84
2023/01/01 02:12:57;;;;;;;25.63;18.23;;;;;;;;;;5041301;28;20228;-84
2023/01/01 02:16:13;;;;;;;29.30;19.50;;;;;;;;;;5030178;28;20334;-84
2023/01/01 02:20:07;;;;;;;28.03;19.00;;;;;;;;;;5030074;28;20185;-84
2023/01/01 02:23:45;;;;;;;27.70;18.23;;;;;;;;;;5017332;28;20217;-84
2023/01/01 02:26:55;;;;;;;28.10;18.83;;;;;;;;;;5027310;28;20180;-84
2023/01/01 02:30:04;;;;;;;29.20;19.63;;;;;;;;;;5027086;28;20177;-84
2023/01/01 02:33:13;;;;;;;29.93;19.33;;;;;;;;;;5014561;28;20228;-84
2023/01/01 02:36:18;;;;;;;30.17;18.40;;;;;;;;;;5025467;28;20185;-84
2023/01/01 02:39:26;;;;;;;23.23;15.50;;;;;;;;;;5025562;28;20533;-84
2023/01/01 02:42:32;;;;;;;24.57;15.40;;;;;;;;;;5013163;28;20209;-84
2023/01/01 02:45:36;;;;;;;26.27;16.27;;;;;;;;;;5035808;28;20640;-84
2023/01/01 02:48:51;;;;;;;27.27;16.23;;;;;;;;;;5023676;28;20197;-84
2023/01/01 02:52:40;;;;;;;23.43;16.03;;;;;;;;;;5023593;28;20225;-84
2023/01/01 02:55:48;;;;;;;19.73;12.87;;;;;;;;;;5032875;28;20197;-84
2023/01/01 03:03:10;;;;;;;21.17;14.37;;;;;;;;;;5033921;28;20212;-84
2023/01/01 03:06:26;;;;;;;22.40;14.00;;;;;;;;;;5022071;28;20201;-84
2023/01/01 03:09:41;;;;;;;20.87;12.87;;;;;;;;;;5036892;28;20181;-84
2023/01/01 03:12:49;;;;;;;20.60;13.97;;;;;;;;;;5015408;28;20221;-84
2023/01/01 03:16:02;;;;;;;22.87;14.93;;;;;;;;;;5037923;28;20651;-85
2023/01/01 03:19:23;;;;;;;25.47;15.57;;;;;;;;;;5028388;28;20176;-84
2023/01/01 03:22:33;;;;;;;23.37;16.47;;;;;;;;;;5014845;28;20213;-84
2023/01/01 03:25:45;;;;;;;24.27;15.13;;;;;;;;;;5014197;28;20177;-85
2023/01/01 03:28:58;;;;;;;20.47;13.83;;;;;;;;;;5013955;28;20197;-84
2023/01/01 03:32:04;;;;;;;23.93;13.93;;;;;;;;;;5025621;28;20232;-84
2023/01/01 03:35:11;;;;;;;23.40;13.83;;;;;;;;;;5015047;28;20201;-84
2023/01/01 03:38:50;;;;;;;22.37;15.93;;;;;;;;;;5038271;28;20181;-84
2023/01/01 03:42:14;;;;;;;29.33;16.17;;;;;;;;;;5014167;28;20220;-84
2023/01/01 03:45:34;;;;;;;22.27;16.07;;;;;;;;;;5025519;28;20521;-84
2023/01/01 03:48:56;;;;;;;21.57;14.87;;;;;;;;;;5025689;28;20185;-84
2023/01/01 03:52:31;;;;;;;25.87;17.20;;;;;;;;;;5026452;28;20220;-85
2023/01/01 03:55:40;;;;;;;25.20;16.43;;;;;;;;;;5015127;28;20177;-84
2023/01/01 03:58:52;;;;;;;20.57;15.33;;;;;;;;;;5026400;28;20536;-84
2023/01/01 04:01:58;;;;;;;26.53;18.43;;;;;;;;;;5015617;28;20212;-84
2023/01/01 04:05:06;;;;;;;30.20;18.77;;;;;;;;;;5038129;28;20212;-84
2023/01/01 04:08:12;;;;;;;29.07;18.70;;;;;;;;;;5038411;28;20177;-84
2023/01/01 04:14:44;;;;;;;33.13;21.67;;;;;;;;;;5026254;28;20201;-85
2023/01/01 04:17:48;;;;;;;31.07;21.37;;;;;;;;;;5014864;28;20196;-84
2023/01/01 04:20:53;;;;;;;37.03;23.40;;;;;;;;;;5025584;28;20184;-84
2023/01/01 04:23:57;;;;;;;36.30;23.40;;;;;;;;;;5026169;28;20177;-84
2023/01/01 04:27:01;;;;;;;30.70;19.97;;;;;;;;;;5015423;28;20181;-84
2023/01/01 04:30:08;;;;;;;37.47;24.00;;;;;;;;;;5014502;28;20209;-84
2023/01/01 04:33:13;;;;;;;35.83;22.20;;;;;;;;;;5013094;28;20698;-85
2023/01/01 04:36:17;;;;;;;33.57;22.17;;;;;;;;;;5024107;28;20181;-84
2023/01/01 04:39:21;;;;;;;33.50;23.00;;;;;;;;;;5024541;28;20184;-84
2023/01/01 04:42:25;;;;;;;36.60;22.87;;;;;;;;;;5013555;28;20703;-84
2023/01/01 04:45:29;;;;;;;34.50;22.27;;;;;;;;;;5013522;28;20624;-85
2023/01/01 04:48:34;;;;;;;35.30;23.00;;;;;;;;;;5035265;28;20628;-85
2023/01/01 04:51:38;;;;;;;37.67;23.30;;;;;;;;;;5024199;28;20691;-85
2023/01/01 04:54:42;;;;;;;40.57;25.97;;;;;;;;;;5013199;28;20177;-84
2023/01/01 04:57:46;;;;;;;37.73;24.77;;;;;;;;;;5012763;28;20180;-84
2023/01/01 05:00:50;;;;;;;42.97;28.03;;;;;;;;;;5023575;28;20173;-84
2023/01/01 05:03:55;;;;;;;55.37;33.67;;;;;;;;;;5023967;28;20176;-85
2023/01/01 05:06:59;;;;;;;47.30;29.63;;;;;;;;;;5024220;28;20185;-84
2023/01/01 05:10:04;;;;;;;42.67;27.60;;;;;;;;;;5036238;28;20200;-85
2023/01/01 05:13:08;;;;;;;44.43;29.07;;;;;;;;;;5013978;28;20220;-84
2023/01/01 05:16:15;;;;;;;49.17;29.40;;;;;;;;;;5024591;28;20177;-84
2023/01/01 05:19:19;;;;;;;47.37;30.33;;;;;;;;;;5024629;28;20173;-85
2023/01/01 05:22:24;;;;;;;44.37;27.93;;;;;;;;;;5023949;28;20671;-85
2023/01/01 05:25:28;;;;;;;41.50;26.70;;;;;;;;;;5024429;28;20177;-85
2023/01/01 05:28:32;;;;;;;43.70;28.17;;;;;;;;;;5013081;28;20181;-85
2023/01/01 05:31:36;;;;;;;43.97;27.70;;;;;;;;;;5012151;28;20569;-85
2023/01/01 05:34:41;;;;;;;41.80;26.80;;;;;;;;;;5013109;28;20173;-85
2023/01/01 05:37:45;;;;;;;43.77;28.23;;;;;;;;;;5024109;28;20177;-84
2023/01/01 05:40:49;;;;;;;41.50;26.23;;;;;;;;;;5023334;28;20181;-85
2023/01/01 05:43:53;;;;;;;45.63;27.70;;;;;;;;;;5035305;28;20668;-85
2023/01/01 05:46:57;;;;;;;44.07;29.20;;;;;;;;;;5012408;28;20177;-85
2023/01/01 05:50:01;;;;;;;46.10;29.13;;;;;;;;;;5011721;28;20181;-85
2023/01/01 05:53:06;;;;;;;49.47;30.73;;;;;;;;;;5011351;28;20228;-85
2023/01/01 05:56:12;;;;;;;51.80;31.27;;;;;;;;;;5011887;28;20201;-85
2023/01/01 05:59:16;;;;;;;48.50;31.90;;;;;;;;;;5012063;28;20529;-85
2023/01/01 06:02:20;;;;;;;48.30;31.17;;;;;;;;;;5023192;28;20216;-85
2023/01/01 06:05:24;;;;;;;45.90;29.57;;;;;;;;;;5022551;28;20208;-85
2023/01/01 06:08:28;;;;;;;46.50;30.73;;;;;;;;;;5011579;28;20197;-85
2023/01/01 06:11:32;;;;;;;46.17;29.90;;;;;;;;;;5011165;28;20225;-85
2023/01/01 06:14:37;;;;;;;42.33;28.03;;;;;;;;;;5033968;28;20173;-85
2023/01/01 06:17:42;;;;;;;49.83;29.40;;;;;;;;;;5011463;28;20180;-85
2023/01/01 06:20:46;;;;;;;50.53;29.27;;;;;;;;;;5022513;28;20185;-85
2023/01/01 06:23:51;;;;;;;46.57;29.10;;;;;;;;;;5024141;28;20181;-83
2023/01/01 06:26:55;;;;;;;47.27;30.43;;;;;;;;;;5012758;28;20185;-83
2023/01/01 06:29:59;;;;;;;49.17;30.80;;;;;;;;;;5022051;28;20176;-85
2023/01/01 06:33:04;;;;;;;49.93;31.40;;;;;;;;;;5010025;28;20225;-84
2023/01/01 06:36:11;;;;;;;47.03;31.17;;;;;;;;;;5022454;28;20177;-83
2023/01/01 06:39:16;;;;;;;45.80;29.77;;;;;;;;;;5022947;28;20181;-84
2023/01/01 06:42:21;;;;;;;53.03;32.03;;;;;;;;;;5012395;28;20216;-84
2023/01/01 06:45:25;;;;;;;51.53;30.67;;;;;;;;;;5015732;28;20268;-83
2023/01/01 06:48:34;;;;;;;53.93;32.50;;;;;;;;;;5014950;28;20528;-84
2023/01/01 06:51:40;;;;;;;49.57;32.10;;;;;;;;;;5025825;28;20217;-84
2023/01/01 06:54:44;;;;;;;45.43;30.40;;;;;;;;;;5015389;28;20189;-83
2023/01/01 06:57:51;;;;;;;46.90;30.80;;;;;;;;;;5015969;28;20541;-83
2023/01/01 07:01:10;;;;;;;47.30;28.63;;;;;;;;;;5038481;28;20181;-84
2023/01/01 07:04:15;;;;;;;46.27;28.60;;;;;;;;;;5026183;28;20197;-82
2023/01/01 07:07:19;;;;;;;51.73;31.83;;;;;;;;;;5038764;28;20189;-83
2023/01/01 07:10:23;;;;;;;50.70;31.63;;;;;;;;;;5014549;28;20189;-83
2023/01/01 07:13:29;;;;;;;49.13;32.03;;;;;;;;;;5015118;28;20209;-83
2023/01/01 07:16:33;;;;;;;48.67;30.97;;;;;;;;;;5015069;28;20173;-83
2023/01/01 07:19:37;;;;;;;44.27;30.07;;;;;;;;;;5014788;28;20201;-83
2023/01/01 07:22:41;;;;;;;47.57;27.83;;;;;;;;;;5014140;28;20216;-83
2023/01/01 07:25:48;;;;;;;49.63;29.73;;;;;;;;;;5013962;28;20177;-83
2023/01/01 07:28:52;;;;;;;47.60;28.27;;;;;;;;;;5036503;28;20181;-84
2023/01/01 07:31:57;;;;;;;44.23;28.50;;;;;;;;;;5013527;28;20216;-83
2023/01/01 07:35:01;;;;;;;46.10;28.53;;;;;;;;;;5024498;28;20169;-84
2023/01/01 07:38:05;;;;;;;46.53;28.03;;;;;;;;;;5024535;28;20200;-84
2023/01/01 07:41:09;;;;;;;42.67;28.97;;;;;;;;;;5024666;28;20184;-84
2023/01/01 07:44:14;;;;;;;46.87;30.03;;;;;;;;;;5025632;28;20181;-84
2023/01/01 07:47:22;;;;;;;47.93;30.37;;;;;;;;;;5014732;28;20172;-83
2023/01/01 07:50:29;;;;;;;44.27;28.73;;;;;;;;;;5027005;28;20181;-83
2023/01/01 07:53:33;;;;;;;66.27;37.97;;;;;;;;;;5028459;28;20204;-83
2023/01/01 07:56:37;;;;;;;78.70;42.53;;;;;;;;;;5017579;28;20647;-83
2023/01/01 07:59:42;;;;;;;87.10;47.47;;;;;;;;;;5028694;28;20193;-82
2023/01/01 08:02:47;;;;;;;91.23;50.53;;;;;;;;;;5028936;28;20559;-84
2023/01/01 08:05:51;;;;;;;71.13;41.80;;;;;;;;;;5027985;28;20205;-86
2023/01/01 08:08:54;;;;;;;54.43;33.70;;;;;;;;;;5030656;28;20188;-84
2023/01/01 08:11:59;;;;;;;56.33;32.17;;;;;;;;;;5030457;28;20212;-84
2023/01/01 08:15:03;;;;;;;58.80;36.57;;;;;;;;;;5018399;28;20205;-85
2023/01/01 08:18:08;;;;;;;56.33;36.23;;;;;;;;;;5025193;28;20181;-86
2023/01/01 08:21:12;;;;;;;59.60;35.87;;;;;;;;;;5024923;28;20197;-86
2023/01/01 08:24:16;;;;;;;28.20;19.07;;;;;;;;;;5017108;28;20192;-85
2023/01/01 08:27:20;;;;;;;19.33;12.13;;;;;;;;;;5027000;28;20185;-84
2023/01/01 08:30:24;;;;;;;17.60;10.53;;;;;;;;;;5016222;28;20188;-83
2023/01/01 08:33:28;;;;;;;13.53;10.33;;;;;;;;;;5029392;28;20213;-84
2023/01/01 08:36:33;;;;;;;17.47;12.33;;;;;;;;;;5016673;28;20207;-83
2023/01/01 08:39:37;;;;;;;21.03;14.30;;;;;;;;;;5029936;28;20202;-82
2023/01/01 08:42:41;;;;;;;14.43;10.70;;;;;;;;;;5017931;28;20323;-82
2023/01/01 08:45:46;;;;;;;12.37;7.63;;;;;;;;;;5016977;28;20203;-82
2023/01/01 08:48:50;;;;;;;13.67;7.77;;;;;;;;;;5027233;28;20536;-82
2023/01/01 08:51:54;;;;;;;13.10;9.97;;;;;;;;;;5016024;28;20216;-85
2023/01/01 08:54:59;;;;;;;14.83;12.10;;;;;;;;;;5011962;28;20205;-86
2023/01/01 08:58:07;;;;;;;18.10;13.23;;;;;;;;;;5012321;28;20192;-86
2023/01/01 09:01:11;;;;;;;24.23;15.97;;;;;;;;;;5014190;28;20204;-85
2023/01/01 09:04:16;;;;;;;32.57;22.73;;;;;;;;;;5025539;28;20229;-81
2023/01/01 09:07:20;;;;;;;28.93;20.80;;;;;;;;;;5037008;28;20536;-82
2023/01/01 09:10:24;;;;;;;29.77;20.60;;;;;;;;;;5016083;28;20191;-85
2023/01/01 09:13:29;;;;;;;27.77;19.43;;;;;;;;;;5013544;28;20710;-85
2023/01/01 09:16:33;;;;;;;23.57;15.50;;;;;;;;;;5023151;28;20192;-84
2023/01/01 09:19:37;;;;;;;18.80;12.80;;;;;;;;;;5025162;28;20192;-84
2023/01/01 09:22:42;;;;;;;16.20;11.77;;;;;;;;;;5014629;28;20224;-84
2023/01/01 09:25:46;;;;;;;15.17;10.37;;;;;;;;;;5013023;28;20535;-84
2023/01/01 09:28:50;;;;;;;15.13;8.77;;;;;;;;;;5015981;28;20532;-84
2023/01/01 09:31:54;;;;;;;14.63;8.20;;;;;;;;;;5024278;28;20675;-84
2023/01/01 09:34:59;;;;;;;11.60;7.53;;;;;;;;;;5023336;28;20790;-86
2023/01/01 09:38:04;;;;;;;9.17;6.37;;;;;;;;;;5011031;28;20181;-85
2023/01/01 09:41:51;;;;;;;9.33;5.83;;;;;;;;;;5034059;28;20181;-84
2023/01/01 09:45:16;;;;;;;9.60;6.33;;;;;;;;;;5011619;28;20176;-86
2023/01/01 09:48:20;;;;;;;9.10;5.50;;;;;;;;;;5025826;28;20181;-82
2023/01/01 09:51:30;;;;;;;10.13;5.50;;;;;;;;;;5039235;28;20212;-84
2023/01/01 09:54:51;;;;;;;7.33;4.83;;;;;;;;;;5012572;28;20209;-84
2023/01/01 09:57:56;;;;;;;6.50;5.07;;;;;;;;;;5011430;28;20185;-84
2023/01/01 10:01:11;;;;;;;5.90;4.40;;;;;;;;;;5011702;28;20177;-85
2023/01/01 10:04:33;;;;;;;7.60;4.90;;;;;;;;;;5024746;28;20204;-83
2023/01/01 10:07:47;;;;;;;6.17;4.60;;;;;;;;;;5021753;28;20196;-85
2023/01/01 10:11:08;;;;;;;7.03;4.30;;;;;;;;;;5011462;28;20197;-83
2023/01/01 10:14:39;;;;;;;8.10;4.80;;;;;;;;;;5013919;28;20209;-83
2023/01/01 10:17:50;;;;;;;7.50;5.00;;;;;;;;;;5026027;28;20184;-85
2023/01/01 10:21:06;;;;;;;7.47;5.37;;;;;;;;;;5026556;28;20184;-84
2023/01/01 10:24:33;;;;;;;7.33;5.07;;;;;;;;;;5025070;28;20178;-86
2023/01/01 10:27:42;;;;;;;8.27;5.37;;;;;;;;;;5012605;28;20185;-85
2023/01/01 10:30:50;;;;;;;7.17;5.03;;;;;;;;;;5017014;28;20184;-86
2023/01/01 10:33:55;;;;;;;9.13;6.17;;;;;;;;;;5024014;28;20209;-87
2023/01/01 10:37:01;;;;;;;7.20;5.70;;;;;;;;;;5025094;28;20201;-85
2023/01/01 10:40:17;;;;;;;10.33;6.13;;;;;;;;;;5019180;28;20204;-84
2023/01/01 10:43:22;;;;;;;7.80;5.93;;;;;;;;;;5020887;28;20221;-87
2023/01/01 10:46:26;;;;;;;9.43;6.83;;;;;;;;;;5040843;28;20177;-85
2023/01/01 10:49:30;;;;;;;11.37;6.23;;;;;;;;;;5030371;28;20181;-85
2023/01/01 10:52:40;;;;;;;19.20;10.10;;;;;;;;;;5029331;28;20220;-84
2023/01/01 10:55:59;;;;;;;10.10;9.10;;;;;;;;;;5039426;28;20232;-88
2023/01/01 10:59:03;;;;;;;11.70;10.10;;;;;;;;;;5016422;28;20181;-85
2023/01/01 11:02:17;;;;;;;8.17;7.30;;;;;;;;;;5015121;28;20262;-85
2023/01/01 11:05:22;;;;;;;10.93;6.23;;;;;;;;;;5025772;28;20525;-85
2023/01/01 11:08:27;;;;;;;10.33;6.33;;;;;;;;;;5036934;28;20185;-85
2023/01/01 11:11:41;;;;;;;8.27;5.70;;;;;;;;;;5025052;28;20217;-85
2023/01/01 11:14:52;;;;;;;7.23;5.57;;;;;;;;;;5012641;28;20205;-85
2023/01/01 11:18:05;;;;;;;7.13;4.93;;;;;;;;;;5024614;28;20205;-85
2023/01/01 11:21:09;;;;;;;6.17;4.90;;;;;;;;;;5011861;28;20497;-85
2023/01/01 11:24:21;;;;;;;8.33;5.20;;;;;;;;;;5012310;28;20180;-86
2023/01/01 11:27:25;;;;;;;6.27;4.73;;;;;;;;;;5011849;28;20178;-86
2023/01/01 11:30:29;;;;;;;8.90;5.07;;;;;;;;;;5013984;28;20185;-86
2023/01/01 11:33:38;;;;;;;7.13;4.60;;;;;;;;;;5026077;28;20172;-86
2023/01/01 11:36:42;;;;;;;7.47;5.07;;;;;;;;;;5014833;28;20510;-86
2023/01/01 11:39:49;;;;;;;5.90;4.70;;;;;;;;;;5014593;28;20181;-85
2023/01/01 11:43:00;;;;;;;7.47;4.60;;;;;;;;;;5025000;28;20216;-85
2023/01/01 11:46:10;;;;;;;7.57;4.73;;;;;;;;;;5014240;28;20189;-86
2023/01/01 11:49:22;;;;;;;10.87;4.77;;;;;;;;;;5013867;28;20192;-85
2023/01/01 11:52:39;;;;;;;7.80;4.70;;;;;;;;;;5026615;28;20718;-84
2023/01/01 11:55:58;;;;;;;5.53;4.03;;;;;;;;;;5025945;28;20212;-85
2023/01/01 11:59:15;;;;;;;5.93;4.43;;;;;;;;;;5025848;28;20181;-85
2023/01/01 12:02:33;;;;;;;7.40;4.80;;;;;;;;;;5014985;28;20220;-83
2023/01/01 12:05:47;;;;;;;6.73;4.70;;;;;;;;;;5025155;28;20201;-84
2023/01/01 12:09:03;;;;;;;8.93;5.00;;;;;;;;;;5026385;28;20181;-84
2023/01/01 12:12:19;;;;;;;8.30;5.10;;;;;;;;;;5014419;28;20699;-85
2023/01/01 12:15:35;;;;;;;9.60;5.53;;;;;;;;;;5036124;28;20217;-85
2023/01/01 12:18:46;;;;;;;7.87;4.80;;;;;;;;;;5014378;28;20177;-81
2023/01/01 12:21:56;;;;;;;7.37;5.17;;;;;;;;;;5040381;28;20216;-80
2023/01/01 12:25:01;;;;;;;7.60;4.90;;;;;;;;;;5017495;28;20181;-80
2023/01/01 12:28:15;;;;;;;4.43;3.67;;;;;;;;;;5028299;28;20180;-80
2023/01/01 12:31:49;;;;;;;9.77;4.77;;;;;;;;;;5026965;28;20181;-80
2023/01/01 12:35:39;;;;;;;7.37;4.77;;;;;;;;;;5039800;28;20209;-80
2023/01/01 12:39:14;;;;;;;6.30;4.17;;;;;;;;;;5027500;28;20181;-80
2023/01/01 12:42:43;;;;;;;6.73;4.50;;;;;;;;;;5027257;28;20683;-80
2023/01/01 12:45:53;;;;;;;5.67;4.53;;;;;;;;;;5038904;28;20181;-80
2023/01/01 12:49:29;;;;;;;6.30;4.23;;;;;;;;;;5026573;28;20651;-80
2023/01/01 12:52:58;;;;;;;5.67;4.03;;;;;;;;;;5039593;28;20216;-80
2023/01/01 12:56:20;;;;;;;5.83;4.30;;;;;;;;;;5027257;28;20208;-80
2023/01/01 12:59:38;;;;;;;9.33;4.60;;;;;;;;;;5027539;28;20181;-80
2023/01/01 13:02:49;;;;;;;4.77;3.83;;;;;;;;;;5026477;28;20212;-80
2023/01/01 13:05:56;;;;;;;5.97;4.17;;;;;;;;;;5025983;28;20201;-80
2023/01/01 13:09:10;;;;;;;6.90;3.97;;;;;;;;;;5038028;28;20177;-80
2023/01/01 13:12:18;;;;;;;8.33;4.53;;;;;;;;;;5026433;28;20221;-80
2023/01/01 13:15:37;;;;;;;8.30;4.60;;;;;;;;;;5026833;28;20537;-80
2023/01/01 13:18:48;;;;;;;6.13;3.60;;;;;;;;;;5026474;28;20185;-80
2023/01/01 13:21:52;;;;;;;5.73;4.03;;;;;;;;;;5038027;28;20217;-81
2023/01/01 13:25:09;;;;;;;5.73;4.00;;;;;;;;;;5037586;28;20200;-80
2023/01/01 13:28:14;;;;;;;5.53;3.70;;;;;;;;;;5026999;28;20181;-80
2023/01/01 13:31:18;;;;;;;5.90;3.67;;;;;;;;;;5037955;28;20181;-80
2023/01/01 13:34:56;;;;;;;5.93;3.63;;;;;;;;;;5026109;28;20173;-80
2023/01/01 13:38:01;;;;;;;5.07;3.30;;;;;;;;;;5025604;28;20514;-79
2023/01/01 13:41:25;;;;;;;6.03;3.70;;;;;;;;;;5015142;28;20176;-80
2023/01/01 13:44:29;;;;;;;4.50;3.50;;;;;;;;;;5037494;28;20185;-80
2023/01/01 13:48:11;;;;;;;7.57;3.37;;;;;;;;;;5037644;28;20184;-80
2023/01/01 13:51:53;;;;;;;5.57;3.50;;;;;;;;;;5025699;28;20181;-80
2023/01/01 13:55:06;;;;;;;5.47;3.43;;;;;;;;;;5025826;28;20209;-80
2023/01/01 13:58:30;;;;;;;5.27;3.43;;;;;;;;;;5036886;28;20181;-80
2023/01/01 14:01:40;;;;;;;4.00;3.00;;;;;;;;;;5036920;28;20205;-79
2023/01/01 14:04:50;;;;;;;5.60;2.83;;;;;;;;;;5036787;28;20196;-79
2023/01/01 14:07:55;;;;;;;3.40;2.30;;;;;;;;;;5036494;28;20201;-79
2023/01/01 14:11:01;;;;;;;4.73;2.90;;;;;;;;;;5024967;28;20181;-79
2023/01/01 14:14:22;;;;;;;6.53;3.00;;;;;;;;;;5025435;28;20181;-79
2023/01/01 14:17:27;;;;;;;5.67;3.07;;;;;;;;;;5036964;28;20173;-79
2023/01/01 14:20:47;;;;;;;4.90;2.77;;;;;;;;;;5025498;28;20177;-80
2023/01/01 14:23:56;;;;;;;3.40;2.40;;;;;;;;;;5024566;28;20624;-84
2023/01/01 14:27:04;;;;;;;6.40;2.80;;;;;;;;;;5023369;28;20173;-85
2023/01/01 14:30:15;;;;;;;3.63;2.73;;;;;;;;;;5023008;28;20182;-85
2023/01/01 14:33:24;;;;;;;4.57;2.73;;;;;;;;;;5011308;28;20561;-84
2023/01/01 14:36:30;;;;;;;4.70;2.90;;;;;;;;;;5014575;28;20285;-83
2023/01/01 14:39:36;;;;;;;4.60;3.03;;;;;;;;;;5024443;28;20184;-84
2023/01/01 14:42:40;;;;;;;6.93;3.13;;;;;;;;;;5024184;28;20212;-84
2023/01/01 14:45:44;;;;;;;6.60;3.60;;;;;;;;;;5036738;28;20616;-81
2023/01/01 14:48:55;;;;;;;5.17;3.17;;;;;;;;;;5025427;28;20181;-82
2023/01/01 14:52:04;;;;;;;4.27;3.07;;;;;;;;;;5026296;28;20213;-81
2023/01/01 14:55:16;;;;;;;5.57;3.30;;;;;;;;;;5014957;28;20205;-81
2023/01/01 14:58:23;;;;;;;5.93;3.00;;;;;;;;;;5014919;28;20193;-81
2023/01/01 15:01:28;;;;;;;5.03;3.07;;;;;;;;;;5039344;28;20213;-82
2023/01/01 15:04:32;;;;;;;4.83;3.13;;;;;;;;;;5036414;28;20200;-84
2023/01/01 15:07:36;;;;;;;7.07;2.73;;;;;;;;;;5028389;28;20180;-82
2023/01/01 15:10:40;;;;;;;4.03;2.87;;;;;;;;;;5017866;28;20185;-82
2023/01/01 15:13:59;;;;;;;4.63;2.80;;;;;;;;;;5026216;28;20529;-87
2023/01/01 15:17:05;;;;;;;4.40;2.63;;;;;;;;;;5028384;28;20213;-80
2023/01/01 15:20:20;;;;;;;4.83;2.70;;;;;;;;;;5028235;28;20181;-81
2023/01/01 15:23:25;;;;;;;4.53;3.10;;;;;;;;;;5039333;28;20216;-81
2023/01/01 15:26:43;;;;;;;3.90;2.63;;;;;;;;;;5027090;28;20177;-80
2023/01/01 15:29:47;;;;;;;6.87;2.40;;;;;;;;;;5027382;28;20197;-80
2023/01/01 15:32:51;;;;;;;5.30;3.00;;;;;;;;;;5027411;28;20220;-83
2023/01/01 15:36:01;;;;;;;4.60;2.80;;;;;;;;;;5027356;28;20220;-83
2023/01/01 15:39:10;;;;;;;4.77;2.47;;;;;;;;;;5027013;28;20652;-82
2023/01/01 15:42:33;;;;;;;3.73;2.47;;;;;;;;;;5016256;28;20217;-83
2023/01/01 15:45:39;;;;;;;5.00;2.67;;;;;;;;;;5027617;28;20185;-83
2023/01/01 15:48:49;;;;;;;3.87;2.53;;;;;;;;;;5015320;28;20176;-82
2023/01/01 15:52:01;;;;;;;5.63;2.70;;;;;;;;;;5037910;28;20557;-82
2023/01/01 15:55:06;;;;;;;5.90;2.90;;;;;;;;;;5026360;28;20193;-83
2023/01/01 15:58:22;;;;;;;4.40;2.97;;;;;;;;;;5025776;28;20201;-83
2023/01/01 16:01:28;;;;;;;3.63;2.87;;;;;;;;;;5026334;28;20216;-82
2023/01/01 16:04:33;;;;;;;4.33;2.50;;;;;;;;;;5038196;28;20204;-83
2023/01/01 16:07:37;;;;;;;4.23;2.80;;;;;;;;;;5026074;28;20660;-83
2023/01/01 16:10:41;;;;;;;4.67;2.37;;;;;;;;;;5025929;28;20200;-83
2023/01/01 16:13:45;;;;;;;4.23;2.70;;;;;;;;;;5025781;28;20627;-83
2023/01/01 16:16:55;;;;;;;2.13;1.90;;;;;;;;;;5025942;28;20209;-82
2023/01/01 16:20:00;;;;;;;3.97;2.33;;;;;;;;;;5013844;28;20181;-84
2023/01/01 16:23:05;;;;;;;4.17;2.60;;;;;;;;;;5013232;28;20228;-84
2023/01/01 16:26:09;;;;;;;3.43;2.27;;;;;;;;;;5014269;28;20177;-83
2023/01/01 16:29:14;;;;;;;4.27;2.10;;;;;;;;;;5015119;28;20180;-84
2023/01/01 16:32:18;;;;;;;3.73;2.10;;;;;;;;;;5014208;28;20213;-84
2023/01/01 16:35:22;;;;;;;4.40;2.17;;;;;;;;;;5012223;28;20192;-85
2023/01/01 16:38:26;;;;;;;3.37;2.10;;;;;;;;;;5023542;28;20176;-85
2023/01/01 16:41:30;;;;;;;3.20;2.00;;;;;;;;;;5013182;28;20216;-84
2023/01/01 16:44:39;;;;;;;2.80;1.87;;;;;;;;;;5014347;28;20197;-83
2023/01/01 16:47:45;;;;;;;6.43;2.80;;;;;;;;;;5013879;28;20177;-84
2023/01/01 16:50:50;;;;;;;7.03;3.20;;;;;;;;;;5036336;28;20184;-84
2023/01/01 16:53:56;;;;;;;6.37;3.33;;;;;;;;;;5014876;28;20185;-83
2023/01/01 16:57:00;;;;;;;7.50;5.13;;;;;;;;;;5025637;28;20656;-82
2023/01/01 17:00:06;;;;;;;6.43;4.00;;;;;;;;;;5051081;28;20196;-85
2023/01/01 17:03:10;;;;;;;11.70;6.30;;;;;;;;;;5031460;28;20212;-86
2023/01/01 17:06:16;;;;;;;6.27;4.50;;;;;;;;;;5047612;28;20199;-85
2023/01/01 17:09:21;;;;;;;8.73;5.93;;;;;;;;;;5051492;28;20654;-86
2023/01/01 17:12:25;;;;;;;5.47;2.90;;;;;;;;;;5051167;28;20215;-86
2023/01/01 17:15:30;;;;;;;3.17;2.33;;;;;;;;;;5062443;28;20175;-85
2023/01/01 17:18:35;;;;;;;3.53;2.03;;;;;;;;;;5062765;28;20188;-85
2023/01/01 17:21:39;;;;;;;2.33;1.87;;;;;;;;;;5051143;28;20215;-85
2023/01/01 17:24:43;;;;;;;5.20;2.17;;;;;;;;;;5050760;28;20180;-84
2023/01/01 17:27:47;;;;;;;3.10;2.20;;;;;;;;;;5061489;28;20172;-86
2023/01/01 17:30:51;;;;;;;4.43;2.40;;;;;;;;;;5050830;28;20630;-85
2023/01/01 17:33:56;;;;;;;2.83;1.93;;;;;;;;;;5050821;28;20180;-85
2023/01/01 17:37:00;;;;;;;2.57;1.90;;;;;;;;;;5062452;28;20203;-85
2023/01/01 17:40:04;;;;;;;3.93;2.60;;;;;;;;;;5061901;28;20179;-85
2023/01/01 17:43:08;;;;;;;4.13;2.53;;;;;;;;;;5062773;28;20219;-86
2023/01/01 17:46:25;;;;;;;4.70;2.63;;;;;;;;;;5050320;28;20180;-85
2023/01/01 17:49:29;;;;;;;6.20;3.77;;;;;;;;;;5050386;28;20666;-85
2023/01/01 17:52:33;;;;;;;5.77;3.03;;;;;;;;;;5073702;28;20214;-85
2023/01/01 17:55:37;;;;;;;6.03;4.60;;;;;;;;;;5073866;28;20631;-86
2023/01/01 17:58:43;;;;;;;13.03;8.00;;;;;;;;;;5052743;28;20171;-85
2023/01/01 18:01:47;;;;;;;10.77;6.50;;;;;;;;;;5056659;28;20211;-87
2023/01/01 18:04:51;;;;;;;8.10;5.23;;;;;;;;;;5080612;28;20206;-85
2023/01/01 18:07:55;;;;;;;5.63;3.07;;;;;;;;;;5059056;28;20176;-85
2023/01/01 18:11:00;;;;;;;6.87;3.50;;;;;;;;;;5057672;28;20183;-86
2023/01/01 18:14:04;;;;;;;5.27;3.53;;;;;;;;;;5057576;28;20179;-86
2023/01/01 18:17:09;;;;;;;9.43;5.07;;;;;;;;;;5056978;28;20227;-84
2023/01/01 18:20:13;;;;;;;16.13;8.73;;;;;;;;;;5054831;28;20195;-83
2023/01/01 18:23:18;;;;;;;6.03;4.03;;;;;;;;;;5066247;28;20215;-85
2023/01/01 18:26:25;;;;;;;5.60;3.53;;;;;;;;;;5077168;28;20176;-85
2023/01/01 18:29:29;;;;;;;5.83;2.90;;;;;;;;;;5052059;28;20179;-85
2023/01/01 18:32:33;;;;;;;4.67;3.13;;;;;;;;;;5051399;28;20594;-86
2023/01/01 18:35:37;;;;;;;4.20;2.60;;;;;;;;;;5062628;28;20183;-85
2023/01/01 18:38:44;;;;;;;4.50;3.27;;;;;;;;;;5052481;28;20638;-85
2023/01/01 18:42:15;;;;;;;2.90;2.03;;;;;;;;;;5061476;28;20235;-84